createdAt,value
2023-05-10T00:00:56.024Z,18.80
2023-05-10T00:03:22.827Z,18.79
2023-05-10T00:05:49.232Z,18.77
2023-05-10T00:08:15.836Z,18.74
2023-05-10T00:10:42.294Z,18.73
2023-05-10T00:13:08.768Z,18.74
2023-05-10T00:15:35.683Z,18.71
2023-05-10T00:18:02.132Z,18.69
2023-05-10T00:20:28.612Z,18.69
2023-05-10T00:22:55.084Z,18.69
2023-05-10T00:25:22.554Z,18.69
2023-05-10T00:27:49.279Z,18.67
2023-05-10T00:30:16.052Z,18.66
2023-05-10T00:32:42.779Z,18.65
2023-05-10T00:35:09.420Z,18.64
2023-05-10T00:37:35.863Z,18.63
2023-05-10T00:40:02.248Z,18.62
2023-05-10T00:42:28.802Z,18.62
2023-05-10T00:44:55.637Z,18.60
2023-05-10T00:47:22.848Z,18.58
2023-05-10T00:49:49.347Z,18.56
2023-05-10T00:52:16.160Z,18.55
2023-05-10T00:54:42.833Z,18.52
2023-05-10T00:57:09.654Z,18.51
2023-05-10T00:59:36.105Z,18.49
2023-05-10T01:02:02.649Z,18.47
2023-05-10T01:04:29.926Z,18.44
2023-05-10T01:06:56.312Z,18.41
2023-05-10T01:09:23.575Z,18.37
2023-05-10T01:11:50.318Z,18.33
2023-05-10T01:14:20.009Z,18.29
2023-05-10T01:16:49.541Z,18.26
2023-05-10T01:19:29.297Z,18.24
2023-05-10T01:22:26.969Z,18.21
2023-05-10T01:24:57.319Z,18.17
2023-05-10T01:27:45.447Z,18.17
2023-05-10T01:30:22.359Z,18.16
2023-05-10T01:32:51.560Z,18.15
2023-05-10T01:35:34.304Z,18.15
2023-05-10T01:38:18.551Z,18.16
2023-05-10T01:40:51.958Z,18.17
2023-05-10T01:43:24.956Z,18.18
2023-05-10T01:45:54.367Z,18.18
2023-05-10T01:48:21.919Z,18.18
2023-05-10T01:50:50.002Z,18.19
2023-05-10T01:53:19.974Z,18.20
2023-05-10T01:55:49.921Z,18.18
2023-05-10T01:58:21.067Z,18.18
2023-05-10T02:00:50.715Z,18.16
2023-05-10T02:03:19.481Z,18.14
2023-05-10T02:05:49.184Z,18.14
2023-05-10T02:08:18.803Z,18.11
2023-05-10T02:10:46.874Z,18.10
2023-05-10T02:13:15.045Z,18.08
2023-05-10T02:15:42.573Z,18.06
2023-05-10T02:18:11.877Z,18.04
2023-05-10T02:20:38.965Z,17.98
2023-05-10T02:23:07.597Z,17.92
2023-05-10T02:25:34.374Z,17.86
2023-05-10T02:28:03.675Z,17.77
2023-05-10T02:30:33.367Z,17.66
2023-05-10T02:33:00.954Z,17.49
2023-05-10T02:35:29.079Z,17.33
2023-05-10T02:37:57.299Z,17.15
2023-05-10T02:40:26.153Z,16.97
2023-05-10T02:42:57.324Z,16.82
2023-05-10T02:45:29.022Z,16.66
2023-05-10T02:47:55.978Z,16.52
2023-05-10T02:50:23.477Z,16.41
2023-05-10T02:52:57.436Z,16.31
2023-05-10T02:55:27.908Z,16.23
2023-05-10T02:58:03.351Z,16.16
2023-05-10T03:00:30.249Z,16.10
2023-05-10T03:02:56.983Z,16.04
2023-05-10T03:05:23.664Z,15.99
2023-05-10T03:07:51.766Z,15.96
2023-05-10T03:10:18.876Z,15.92
2023-05-10T03:13:06.903Z,15.90
2023-05-10T03:16:14.762Z,15.88
2023-05-10T03:19:28.931Z,15.87
2023-05-10T03:22:01.288Z,15.86
2023-05-10T03:24:29.697Z,15.84
2023-05-10T03:26:57.943Z,15.83
2023-05-10T03:29:27.064Z,15.82
2023-05-10T03:31:53.565Z,15.80
2023-05-10T03:34:25.158Z,15.80
2023-05-10T03:36:51.692Z,15.78
2023-05-10T03:39:18.105Z,15.77
2023-05-10T03:41:44.498Z,15.77
2023-05-10T03:44:11.073Z,15.76
2023-05-10T03:46:37.490Z,15.75
2023-05-10T03:49:03.875Z,15.74
2023-05-10T03:51:32.126Z,15.73
2023-05-10T03:53:58.545Z,15.72
2023-05-10T03:56:25.018Z,15.74
2023-05-10T03:58:51.546Z,15.75
2023-05-10T04:01:17.885Z,15.76
2023-05-10T04:03:44.385Z,15.76
2023-05-10T04:06:12.693Z,15.76
2023-05-10T04:08:39.129Z,15.76
2023-05-10T04:11:10.157Z,15.77
2023-05-10T04:13:36.834Z,15.78
2023-05-10T04:16:03.850Z,15.78
2023-05-10T04:18:30.450Z,15.78
2023-05-10T04:20:56.800Z,15.78
2023-05-10T04:23:23.218Z,15.79
2023-05-10T04:25:49.673Z,15.79
2023-05-10T04:28:16.021Z,15.80
2023-05-10T04:30:42.396Z,15.80
2023-05-10T04:33:08.831Z,15.82
2023-05-10T04:35:36.034Z,15.83
2023-05-10T04:38:02.492Z,15.83
2023-05-10T04:40:29.027Z,15.85
2023-05-10T04:42:55.429Z,15.86
2023-05-10T04:45:21.996Z,15.87
2023-05-10T04:47:48.459Z,15.88
2023-05-10T04:50:15.123Z,15.88
2023-05-10T04:52:41.800Z,15.88
2023-05-10T04:55:10.496Z,15.88
2023-05-10T04:57:36.909Z,15.89
2023-05-10T05:00:04.011Z,15.92
2023-05-10T05:02:30.603Z,15.93
2023-05-10T05:04:58.768Z,15.94
2023-05-10T05:07:25.203Z,15.96
2023-05-10T05:09:51.656Z,15.98
2023-05-10T05:12:18.161Z,15.99
2023-05-10T05:14:44.722Z,16.01
2023-05-10T05:17:11.195Z,16.02
2023-05-10T05:19:37.818Z,16.04
2023-05-10T05:22:04.268Z,16.06
2023-05-10T05:24:35.939Z,16.10
2023-05-10T05:27:02.400Z,16.11
2023-05-10T05:29:28.842Z,16.12
2023-05-10T05:31:55.699Z,16.14
2023-05-10T05:34:23.067Z,16.16
2023-05-10T05:36:49.498Z,16.19
2023-05-10T05:39:15.960Z,16.21
2023-05-10T05:41:42.370Z,16.25
2023-05-10T05:44:09.216Z,16.28
2023-05-10T05:46:35.757Z,16.31
2023-05-10T05:49:02.290Z,16.33
2023-05-10T05:51:28.791Z,16.36
2023-05-10T05:53:55.172Z,16.38
2023-05-10T05:56:25.182Z,16.41
2023-05-10T05:58:52.248Z,16.43
2023-05-10T06:01:18.721Z,16.45
2023-05-10T06:03:45.393Z,16.47
2023-05-10T06:06:11.822Z,16.48
2023-05-10T06:08:38.172Z,16.51
2023-05-10T06:11:05.101Z,16.53
2023-05-10T06:13:33.455Z,16.56
2023-05-10T06:16:00.259Z,16.59
2023-05-10T06:18:26.673Z,16.62
2023-05-10T06:20:53.177Z,16.65
2023-05-10T06:23:19.513Z,16.67
2023-05-10T06:25:45.918Z,16.71
2023-05-10T06:28:12.453Z,16.74
2023-05-10T06:30:38.973Z,16.77
2023-05-10T06:33:05.822Z,16.80
2023-05-10T06:35:34.487Z,16.83
2023-05-10T06:38:00.949Z,16.86
2023-05-10T06:40:27.316Z,16.89
2023-05-10T06:42:53.750Z,16.93
2023-05-10T06:45:20.571Z,16.96
2023-05-10T06:47:47.204Z,17.01
2023-05-10T06:50:13.867Z,17.06
2023-05-10T06:52:40.662Z,17.11
2023-05-10T06:55:07.925Z,17.19
2023-05-10T06:57:34.437Z,17.26
2023-05-10T07:00:01.010Z,17.32
2023-05-10T07:02:27.723Z,17.38
2023-05-10T07:04:54.485Z,17.44
2023-05-10T07:07:20.994Z,17.50
2023-05-10T07:09:47.443Z,17.57
2023-05-10T07:12:15.281Z,17.63
2023-05-10T07:14:42.274Z,17.68
2023-05-10T07:17:08.733Z,17.72
2023-05-10T07:19:35.192Z,17.75
2023-05-10T07:22:01.966Z,17.76
2023-05-10T07:24:28.480Z,17.79
2023-05-10T07:26:54.901Z,17.81
2023-05-10T07:29:21.242Z,17.84
2023-05-10T07:31:47.711Z,17.87
2023-05-10T07:34:14.229Z,17.89
2023-05-10T07:36:40.587Z,17.93
2023-05-10T07:39:06.953Z,17.97
2023-05-10T07:41:35.055Z,18.02
2023-05-10T07:44:02.171Z,18.08
2023-05-10T07:46:29.416Z,18.15
2023-05-10T07:48:56.069Z,18.20
2023-05-10T07:51:22.631Z,18.27
2023-05-10T07:53:49.053Z,18.35
2023-05-10T07:56:23.754Z,18.45
2023-05-10T07:58:50.302Z,18.52
2023-05-10T08:01:16.796Z,18.60
2023-05-10T08:03:43.258Z,18.65
2023-05-10T08:06:09.840Z,18.69
2023-05-10T08:08:36.248Z,18.73
2023-05-10T08:11:02.844Z,18.74
2023-05-10T08:13:29.248Z,18.75
2023-05-10T08:15:55.680Z,18.77
2023-05-10T08:18:22.316Z,18.81
2023-05-10T08:20:49.270Z,18.88
2023-05-10T08:23:15.785Z,18.94
2023-05-10T08:25:42.305Z,18.99
2023-05-10T08:28:09.997Z,19.06
2023-05-10T08:30:37.659Z,19.11
2023-05-10T08:33:04.232Z,19.15
2023-05-10T08:35:30.712Z,19.20
2023-05-10T08:37:57.059Z,19.24
2023-05-10T08:40:26.966Z,19.28
2023-05-10T08:43:08.031Z,19.33
2023-05-10T08:45:38.570Z,19.35
2023-05-10T08:48:10.789Z,19.37
2023-05-10T08:50:38.713Z,19.38
2023-05-10T08:53:57.177Z,19.41
2023-05-10T09:00:36.859Z,19.53
2023-05-10T09:03:18.243Z,19.62
2023-05-10T09:11:53.521Z,19.72
2023-05-10T09:15:09.599Z,19.77
2023-05-10T09:17:56.159Z,19.88
2023-05-10T09:20:52.784Z,19.96
2023-05-10T09:26:36.530Z,20.08
2023-05-10T09:33:24.426Z,20.25
2023-05-10T09:43:35.396Z,20.44
2023-05-10T09:46:13.851Z,20.47
2023-05-10T09:48:45.389Z,20.50
2023-05-10T09:51:12.027Z,20.51
2023-05-10T09:53:38.771Z,20.55
2023-05-10T09:59:43.725Z,20.70
2023-05-10T10:02:32.734Z,20.77
2023-05-10T10:05:02.168Z,20.80
2023-05-10T10:07:40.788Z,20.81
2023-05-10T10:10:26.127Z,20.81
2023-05-10T10:12:53.561Z,20.85
2023-05-10T10:15:22.103Z,20.90
2023-05-10T10:17:50.331Z,21.02
2023-05-10T10:20:18.584Z,21.16
2023-05-10T10:22:45.666Z,21.32
2023-05-10T10:25:14.701Z,21.50
2023-05-10T10:28:03.626Z,21.69
2023-05-10T10:30:36.398Z,21.89
2023-05-10T10:34:12.197Z,22.08
2023-05-10T10:36:49.601Z,22.26
2023-05-10T10:39:17.060Z,22.34
2023-05-10T10:42:48.707Z,22.42
2023-05-10T10:48:30.833Z,22.54
2023-05-10T10:51:07.517Z,22.59
2023-05-10T10:53:37.404Z,22.70
2023-05-10T10:56:08.412Z,22.81
2023-05-10T10:58:36.038Z,22.86
2023-05-10T11:01:19.328Z,22.95
2023-05-10T11:04:01.024Z,23.02
2023-05-10T11:06:32.694Z,23.04
2023-05-10T11:08:59.321Z,23.08
2023-05-10T11:11:25.844Z,23.13
2023-05-10T11:13:52.367Z,23.18
2023-05-10T11:16:22.641Z,23.28
2023-05-10T11:18:57.758Z,23.39
2023-05-10T11:21:24.361Z,23.48
2023-05-10T11:23:58.315Z,23.60
2023-05-10T11:26:27.031Z,23.68
2023-05-10T11:28:57.771Z,23.76
2023-05-10T11:31:24.764Z,23.80
2023-05-10T11:33:53.652Z,23.82
2023-05-10T11:36:28.306Z,23.82
2023-05-10T11:38:56.112Z,23.78
2023-05-10T11:41:23.707Z,23.73
2023-05-10T11:43:52.255Z,23.67
2023-05-10T11:46:21.639Z,23.60
2023-05-10T11:48:51.830Z,23.53
2023-05-10T11:51:23.221Z,23.41
2023-05-10T11:53:51.458Z,23.30
2023-05-10T11:56:17.879Z,23.22
2023-05-10T11:58:44.445Z,23.19
2023-05-10T12:01:11.578Z,23.19
2023-05-10T12:03:38.647Z,23.21
2023-05-10T12:06:05.572Z,23.23
2023-05-10T12:08:31.985Z,23.27
2023-05-10T12:11:06.553Z,23.29
2023-05-10T12:13:32.996Z,23.25
2023-05-10T12:16:00.006Z,23.19
2023-05-10T12:18:26.566Z,23.13
2023-05-10T12:20:57.135Z,23.08
2023-05-10T12:23:23.535Z,23.05
2023-05-10T12:25:50.020Z,23.05
2023-05-10T12:28:20.284Z,23.10
2023-05-10T12:30:46.795Z,23.15
2023-05-10T12:33:16.086Z,23.23
2023-05-10T12:35:54.129Z,23.32
2023-05-10T12:38:48.592Z,23.41
2023-05-10T12:41:17.825Z,23.44
2023-05-10T12:43:44.937Z,23.41
2023-05-10T12:46:13.551Z,23.37
2023-05-10T12:48:41.410Z,23.31
2023-05-10T12:51:13.154Z,23.24
2023-05-10T12:53:41.815Z,23.20
2023-05-10T12:56:10.661Z,23.18
2023-05-10T12:58:37.012Z,23.17
2023-05-10T13:01:03.931Z,23.18
2023-05-10T13:03:30.609Z,23.17
2023-05-10T13:05:57.004Z,23.16
2023-05-10T13:08:23.644Z,23.17
2023-05-10T13:10:50.301Z,23.19
2023-05-10T13:13:16.746Z,23.20
2023-05-10T13:15:43.116Z,23.19
2023-05-10T13:18:09.673Z,23.18
2023-05-10T13:20:36.104Z,23.12
2023-05-10T13:23:03.476Z,23.05
2023-05-10T13:25:30.815Z,22.97
2023-05-10T13:27:57.195Z,22.93
2023-05-10T13:30:24.736Z,22.91
2023-05-10T13:32:51.123Z,22.92
2023-05-10T13:35:17.640Z,22.98
2023-05-10T13:37:44.145Z,23.06
2023-05-10T13:40:11.346Z,23.15
2023-05-10T13:42:38.398Z,23.26
2023-05-10T13:45:05.403Z,23.34
2023-05-10T13:47:31.988Z,23.42
2023-05-10T13:49:58.676Z,23.46
2023-05-10T13:52:25.108Z,23.51
2023-05-10T13:54:55.889Z,23.57
2023-05-10T13:57:22.854Z,23.62
2023-05-10T13:59:49.287Z,23.71
2023-05-10T14:02:16.114Z,23.80
2023-05-10T14:04:42.476Z,23.89
2023-05-10T14:07:09.126Z,24.00
2023-05-10T14:09:35.448Z,24.10
2023-05-10T14:12:01.913Z,24.21
2023-05-10T14:14:30.097Z,24.27
2023-05-10T14:16:56.829Z,24.25
2023-05-10T14:19:23.206Z,24.17
2023-05-10T14:21:49.583Z,24.05
2023-05-10T14:24:16.116Z,23.94
2023-05-10T14:26:42.487Z,23.82
2023-05-10T14:29:10.047Z,23.70
2023-05-10T14:31:38.636Z,23.58
2023-05-10T14:34:05.117Z,23.47
2023-05-10T14:36:31.707Z,23.38
2023-05-10T14:38:58.093Z,23.32
2023-05-10T14:41:25.677Z,23.27
2023-05-10T14:43:52.259Z,23.22
2023-05-10T14:46:19.117Z,23.20
2023-05-10T14:48:45.560Z,23.14
2023-05-10T14:51:12.001Z,23.10
2023-05-10T14:53:38.365Z,23.05
2023-05-10T14:56:04.947Z,23.02
2023-05-10T14:58:33.992Z,22.97
2023-05-10T15:01:00.723Z,22.95
2023-05-10T15:03:27.719Z,22.91
2023-05-10T15:05:54.744Z,22.88
2023-05-10T15:08:21.504Z,22.83
2023-05-10T15:10:47.886Z,22.78
2023-05-10T15:13:14.235Z,22.72
2023-05-10T15:15:40.716Z,22.68
2023-05-10T15:18:07.193Z,22.67
2023-05-10T15:20:33.569Z,22.67
2023-05-10T15:22:59.897Z,22.64
2023-05-10T15:25:27.069Z,22.65
2023-05-10T15:27:53.463Z,22.64
2023-05-10T15:30:19.934Z,22.65
2023-05-10T15:32:46.452Z,22.68
2023-05-10T15:35:13.592Z,22.73
2023-05-10T15:37:42.253Z,22.78
2023-05-10T15:40:08.962Z,22.83
2023-05-10T15:42:35.358Z,22.85
2023-05-10T15:45:01.843Z,22.85
2023-05-10T15:47:31.810Z,22.81
2023-05-10T15:49:58.187Z,22.74
2023-05-10T15:52:24.702Z,22.66
2023-05-10T15:54:51.513Z,22.56
2023-05-10T15:57:17.860Z,22.45
2023-05-10T15:59:44.493Z,22.33
2023-05-10T16:02:11.033Z,22.21
2023-05-10T16:04:37.780Z,22.10
2023-05-10T16:07:04.312Z,21.98
2023-05-10T16:09:30.718Z,21.83
2023-05-10T16:11:57.047Z,21.65
2023-05-10T16:14:24.618Z,21.44
2023-05-10T16:16:51.469Z,21.24
2023-05-10T16:19:18.252Z,21.05
2023-05-10T16:21:44.876Z,20.91
2023-05-10T16:24:11.394Z,20.81
2023-05-10T16:26:40.920Z,20.74
2023-05-10T16:29:10.745Z,20.72
2023-05-10T16:31:37.359Z,20.71
2023-05-10T16:34:03.857Z,20.75
2023-05-10T16:36:31.256Z,20.78
2023-05-10T16:38:57.613Z,20.88
2023-05-10T16:41:24.025Z,20.95
2023-05-10T16:43:50.466Z,21.05
2023-05-10T16:46:16.952Z,21.18
2023-05-10T16:48:43.565Z,21.36
2023-05-10T16:51:09.915Z,21.55
2023-05-10T16:53:36.316Z,21.75
2023-05-10T16:56:03.065Z,21.91
2023-05-10T16:58:29.426Z,22.11
2023-05-10T17:00:58.496Z,22.29
2023-05-10T17:03:25.038Z,22.48
2023-05-10T17:05:51.485Z,22.64
2023-05-10T17:08:17.916Z,22.76
2023-05-10T17:10:44.447Z,22.89
2023-05-10T17:13:11.016Z,23.02
2023-05-10T17:15:38.947Z,23.15
2023-05-10T17:18:06.704Z,23.28
2023-05-10T17:20:33.522Z,23.38
2023-05-10T17:23:02.556Z,23.48
2023-05-10T17:25:29.156Z,23.54
2023-05-10T17:27:55.605Z,23.59
2023-05-10T17:30:26.197Z,23.62
2023-05-10T17:32:54.093Z,23.65
2023-05-10T17:35:21.340Z,23.66
2023-05-10T17:37:47.722Z,23.65
2023-05-10T17:40:14.097Z,23.65
2023-05-10T17:42:40.806Z,23.65
2023-05-10T17:45:07.727Z,23.70
2023-05-10T17:47:34.143Z,23.77
2023-05-10T17:50:00.505Z,23.87
2023-05-10T17:52:27.005Z,23.96
2023-05-10T17:54:53.338Z,23.99
2023-05-10T17:57:20.666Z,23.94
2023-05-10T17:59:47.483Z,23.83
2023-05-10T18:02:13.902Z,23.70
2023-05-10T18:04:40.865Z,23.51
2023-05-10T18:07:08.504Z,23.32
2023-05-10T18:09:34.981Z,23.14
2023-05-10T18:12:04.940Z,22.98
2023-05-10T18:14:40.472Z,22.82
2023-05-10T18:17:07.942Z,22.66
2023-05-10T18:19:34.563Z,22.50
2023-05-10T18:22:00.932Z,22.39
2023-05-10T18:24:38.388Z,22.26
2023-05-10T18:27:06.938Z,22.13
2023-05-10T18:29:33.401Z,22.03
2023-05-10T18:31:59.781Z,21.91
2023-05-10T18:34:26.272Z,21.80
2023-05-10T18:36:52.949Z,21.69
2023-05-10T18:39:19.411Z,21.56
2023-05-10T18:41:45.936Z,21.42
2023-05-10T18:44:12.300Z,21.31
2023-05-10T18:46:40.099Z,21.19
2023-05-10T18:49:08.257Z,21.06
2023-05-10T18:51:34.741Z,20.92
2023-05-10T18:54:01.326Z,20.81
2023-05-10T18:56:27.697Z,20.68
2023-05-10T18:58:54.222Z,20.55
2023-05-10T19:01:21.172Z,20.44
2023-05-10T19:03:47.599Z,20.33
2023-05-10T19:06:13.992Z,20.24
2023-05-10T19:08:40.403Z,20.16
2023-05-10T19:11:06.715Z,20.10
2023-05-10T19:13:33.065Z,20.06
2023-05-10T19:16:10.433Z,20.04
2023-05-10T19:18:37.000Z,20.00
2023-05-10T19:21:05.585Z,19.96
2023-05-10T19:23:33.517Z,19.93
2023-05-10T19:26:01.126Z,19.90
2023-05-10T19:28:27.531Z,19.89
2023-05-10T19:30:54.019Z,19.89
2023-05-10T19:33:20.884Z,19.88
2023-05-10T19:35:49.192Z,19.86
2023-05-10T19:38:15.738Z,19.85
2023-05-10T19:40:42.214Z,19.83
2023-05-10T19:43:08.698Z,19.80
2023-05-10T19:45:35.521Z,19.77
2023-05-10T19:48:02.191Z,19.71
2023-05-10T19:50:28.558Z,19.68
2023-05-10T19:52:55.020Z,19.62
2023-05-10T19:55:31.914Z,19.58
2023-05-10T19:58:00.572Z,19.51
2023-05-10T20:00:29.822Z,19.45
2023-05-10T20:02:56.277Z,19.38
2023-05-10T20:05:22.975Z,19.32
2023-05-10T20:07:49.472Z,19.24
2023-05-10T20:10:17.385Z,19.17
2023-05-10T20:12:51.402Z,19.12
2023-05-10T20:15:22.911Z,19.06
2023-05-10T20:17:53.723Z,18.98
2023-05-10T20:20:21.105Z,18.92
2023-05-10T20:22:48.421Z,18.87
2023-05-10T20:25:15.923Z,18.80
2023-05-10T20:27:42.719Z,18.77
2023-05-10T20:30:10.410Z,18.74
2023-05-10T20:32:37.923Z,18.72
2023-05-10T20:35:05.400Z,18.70
2023-05-10T20:37:32.055Z,18.67
2023-05-10T20:39:58.635Z,18.64
2023-05-10T20:42:24.992Z,18.61
2023-05-10T20:44:51.539Z,18.59
2023-05-10T20:47:18.074Z,18.57
2023-05-10T20:49:44.461Z,18.54
2023-05-10T20:52:11.198Z,18.51
2023-05-10T20:54:52.388Z,18.50
2023-05-10T20:57:19.477Z,18.46
2023-05-10T20:59:45.826Z,18.45
2023-05-10T21:02:12.308Z,18.42
2023-05-10T21:04:38.669Z,18.43
2023-05-10T21:07:05.016Z,18.41
2023-05-10T21:09:31.386Z,18.41
2023-05-10T21:11:58.056Z,18.40
2023-05-10T21:14:24.372Z,18.42
2023-05-10T21:16:51.306Z,18.45
2023-05-10T21:19:17.789Z,18.46
2023-05-10T21:21:44.101Z,18.48
2023-05-10T21:24:10.529Z,18.54
2023-05-10T21:26:37.286Z,18.56
2023-05-10T21:29:04.888Z,18.59
2023-05-10T21:31:31.974Z,18.63
2023-05-10T21:33:58.315Z,18.69
2023-05-10T21:36:25.317Z,18.75
2023-05-10T21:38:51.696Z,18.79
2023-05-10T21:41:18.089Z,18.83
2023-05-10T21:43:44.499Z,18.88
2023-05-10T21:46:12.920Z,18.90
2023-05-10T21:48:39.616Z,18.92
2023-05-10T21:51:06.261Z,18.94
2023-05-10T21:53:32.780Z,18.94
2023-05-10T21:55:59.157Z,18.95
2023-05-10T21:58:25.485Z,18.96
2023-05-10T22:00:51.936Z,18.97
2023-05-10T22:03:18.342Z,18.97
2023-05-10T22:05:44.765Z,18.99
2023-05-10T22:08:11.110Z,18.97
2023-05-10T22:10:37.524Z,18.98
2023-05-10T22:13:03.973Z,18.98
2023-05-10T22:15:33.589Z,18.98
2023-05-10T22:18:01.396Z,18.97
2023-05-10T22:20:27.745Z,18.95
2023-05-10T22:22:54.976Z,18.93
2023-05-10T22:25:21.515Z,18.88
2023-05-10T22:27:47.836Z,18.85
2023-05-10T22:30:14.339Z,18.82
2023-05-10T22:32:40.726Z,18.80
2023-05-10T22:35:07.737Z,18.78
2023-05-10T22:37:34.096Z,18.79
2023-05-10T22:40:00.455Z,18.79
2023-05-10T22:42:26.853Z,18.78
2023-05-10T22:44:53.503Z,18.77
2023-05-10T22:47:19.932Z,18.77
2023-05-10T22:49:46.883Z,18.77
2023-05-10T22:52:13.299Z,18.75
2023-05-10T22:54:39.637Z,18.71
2023-05-10T22:57:05.989Z,18.67
2023-05-10T22:59:32.607Z,18.63
2023-05-10T23:01:58.997Z,18.60
2023-05-10T23:04:25.854Z,18.57
2023-05-10T23:06:52.249Z,18.57
2023-05-10T23:09:18.620Z,18.55
2023-05-10T23:11:44.981Z,18.54
2023-05-10T23:14:11.798Z,18.54
2023-05-10T23:16:38.271Z,18.52
2023-05-10T23:19:04.647Z,18.50
2023-05-10T23:21:32.253Z,18.50
2023-05-10T23:23:58.934Z,18.46
2023-05-10T23:26:25.504Z,18.47
2023-05-10T23:28:51.957Z,18.46
2023-05-10T23:31:18.398Z,18.46
2023-05-10T23:33:44.774Z,18.45
2023-05-10T23:36:11.112Z,18.45
2023-05-10T23:38:39.136Z,18.45
2023-05-10T23:41:05.477Z,18.45
2023-05-10T23:43:31.831Z,18.43
2023-05-10T23:45:58.620Z,18.41
2023-05-10T23:48:25.083Z,18.41
2023-05-10T23:50:51.711Z,18.39
2023-05-10T23:53:18.468Z,18.39
2023-05-10T23:55:45.413Z,18.37
2023-05-10T23:58:12.437Z,18.34
